Flight Track Log - Related Links

Times and Time Zones

All times are in EST time to prevent confusion due to time zone crossing. See the UCA3598 flight status page for this flight to view local times or setup timezone preferences in your user account.


Time Position Orientation Groundspeed Altitude Reporting Facility
EST Latitude Longitude Course Direction KTS MPH feet Rate Location/Type
Sat 11:00:17 PM 38.9500 -77.5000 North 126 145 2,200  Level Potomac TRACON
Sat 11:01:17 PM 38.9500 -77.5500 270° West 127 146 4,400 1,728 Climbing Potomac TRACON
Sat 11:03:28 PM 39.0178 -77.5928 334° Northwest 118 136 7,700 1,594 Climbing Washington Center
Sat 11:04:29 PM 39.0656 -77.5886 North 159 183 9,500 1,664 Climbing Washington Center
Sat 11:05:00 PM 39.4224 -77.2536 North  Level Estimated
Sat 11:05:27 PM 39.1139 -77.5792 North 171 197 11,000  Level Washington Center
Sat 11:06:28 PM 39.1639 -77.5700 North 176 203 12,200 1,200 Climbing Washington Center
Sat 11:07:27 PM 39.2142 -77.5553 13° North 182 209 13,400 1,210 Climbing Washington Center
Sat 11:08:27 PM 39.2728 -77.5433 North 187 215 14,600 1,172 Climbing Washington Center
Sat 11:10:16 PM 39.3761 -77.5183 11° North 210 242 16,700 1,136 Climbing New York Center
Sat 11:11:16 PM 39.4375 -77.5053 North 210 242 17,800 1,091 Climbing New York Center
Sat 11:12:17 PM 39.5011 -77.4872 12° North 210 242 18,900 600 Climbing New York Center
Sat 11:13:16 PM 39.5719 -77.4508 22° Northeast 242 278 19,000 50 Climbing New York Center
Sat 11:14:16 PM 39.6494 -77.4097 22° Northeast 282 325 19,000  Level New York Center
Sat 11:15:16 PM 39.7181 -77.3756 21° North 298 343 19,000  Level New York Center
Sat 11:16:16 PM 39.8058 -77.3353 19° North 303 349 19,000  Level New York Center
Sat 11:17:16 PM 39.8767 -77.2986 22° Northeast 298 343 19,000  Level New York Center
Sat 11:18:16 PM 39.9622 -77.2578 20° North 293 337 19,000  Level New York Center
Sat 11:19:16 PM 40.0308 -77.2233 21° North 293 337 19,000  Level New York Center
Sat 11:20:16 PM 40.1167 -77.1797 21° North 298 343 19,000  Level New York Center
Sat 11:21:16 PM 40.1894 -77.1431 21° North 298 343 19,000  Level New York Center
Sat 11:22:16 PM 40.2750 -77.1047 19° North 298 343 19,000  Level New York Center
Sat 11:23:16 PM 40.3436 -77.0672 23° Northeast 298 343 19,000  Level New York Center
Sat 11:24:16 PM 40.4292 -77.0261 20° North 298 343 19,000  Level New York Center
Sat 11:25:16 PM 40.4997 -76.9942 19° North 293 337 19,000  Level New York Center
Sat 11:26:16 PM 40.5833 -76.9497 22° Northeast 293 337 19,000  Level New York Center
Sat 11:27:16 PM 40.6539 -76.9150 20° North 293 337 19,000  Level New York Center
Sat 11:28:16 PM 40.7375 -76.8733 21° North 299 344 19,000  Level New York Center
Sat 11:29:16 PM 40.8081 -76.8383 21° North 294 338 19,000  Level New York Center
Sat 11:30:16 PM 40.8850 -76.7986 21° North 294 338 19,000  Level New York Center
Sat 11:31:16 PM 40.9600 -76.7586 22° Northeast 294 338 19,000 -150 Level New York Center
Sat 11:32:16 PM 41.0369 -76.7214 20° North 294 338 18,700 -400 Descending New York Center
Sat 11:33:16 PM 41.1139 -76.6811 22° Northeast 294 338 18,200 -450 Descending New York Center
Sat 11:34:16 PM 41.1953 -76.6358 23° Northeast 294 338 17,800 -450 Descending New York Center
Sat 11:35:16 PM 41.2719 -76.6011 19° North 294 338 17,300 -500 Descending New York Center
Sat 11:36:16 PM 41.3447 -76.5606 23° Northeast 294 338 16,800 -450 Descending New York Center
Sat 11:37:16 PM 41.4131 -76.5275 20° North 287 330 16,400 -450 Descending New York Center
Sat 11:38:16 PM 41.4858 -76.4894 21° North 282 325 15,900 -750 Descending New York Center
Sat 11:39:16 PM 41.5647 -76.4492 21° North 277 319 14,900 -1,000 Descending New York Center
Sat 11:40:16 PM 41.6375 -76.4108 21° North 277 319 13,900 -1,050 Descending New York Center
Sat 11:41:16 PM 41.7014 -76.3775 21° North 277 319 12,800 -1,350 Descending New York Center
Sat 11:42:16 PM 41.7675 -76.3442 21° North 269 310 11,200 -1,800 Descending New York Center
Sat 11:43:16 PM 41.8339 -76.3078 22° Northeast 240 276 9,200 -1,950 Descending New York Center
Sat 11:44:16 PM 41.8897 -76.2706 26° Northeast 227 261 7,300 -1,900 Descending New York Center
Sat 11:45:16 PM 41.9086 -76.1747 75° East 227 261 5,400 -1,600 Descending New York Center
Sat 11:46:16 PM 41.9250 -76.0925 75° East 244 281 4,100 -700 Descending New York Center
Sat 11:47:16 PM 41.9411 -76.0072 76° East 244 281 4,000 -50 Descending New York Center
Sat 11:48:16 PM 41.9597 -75.9167 75° East 237 273 4,000  Level New York Center
Sat 11:49:16 PM 41.9839 -75.8350 68° East 231 266 4,000  Level New York Center
Sat 11:50:16 PM 42.0300 -75.8328 North 172 198 4,000  Level New York Center
Sat 11:51:16 PM 42.0681 -75.8636 329° Northwest 132 152 4,000  Level New York Center
Sat 11:52:16 PM 42.1022 -75.8942 326° Northwest 138 159 4,000 -250 Level New York Center
Sat 11:53:16 PM 42.1264 -75.9158 326° Northwest 126 145 3,500 -500 Descending New York Center
Sat 11:54:16 PM 42.1506 -75.9344 330° Northwest 109 125 3,000 -600 Descending New York Center
Sat 11:55:16 PM 42.1767 -75.9558 329° Northwest 109 125 2,300 -700 Descending New York Center

Login

Don't have an account? Register now (free) for customized features, flight alerts, and more!